sensor_id;sensor_type;location;lat;lon;timestamp;pressure;altitude;pressure_sealevel;temperature;humidity
31088;BME280;17745;55.914;37.554;2024-02-28T00:00:08;100108.50;;;-0.66;47.04
31088;BME280;17745;55.914;37.554;2024-02-28T00:02:46;100119.25;;;-0.61;47.07
31088;BME280;17745;55.914;37.554;2024-02-28T00:05:19;100122.81;;;-0.62;47.37
31088;BME280;17745;55.914;37.554;2024-02-28T00:07:53;100122.69;;;-0.60;47.23
31088;BME280;17745;55.914;37.554;2024-02-28T00:10:23;100115.69;;;-0.60;47.21
31088;BME280;17745;55.914;37.554;2024-02-28T00:12:54;100112.44;;;-0.62;47.40
31088;BME280;17745;55.914;37.554;2024-02-28T00:15:31;100116.66;;;-0.61;47.38
31088;BME280;17745;55.914;37.554;2024-02-28T00:18:07;100119.13;;;-0.59;47.40
31088;BME280;17745;55.914;37.554;2024-02-28T00:21:04;100114.06;;;-0.61;47.50
31088;BME280;17745;55.914;37.554;2024-02-28T00:23:39;100120.09;;;-0.60;47.53
31088;BME280;17745;55.914;37.554;2024-02-28T00:26:37;100128.87;;;-0.61;47.67
31088;BME280;17745;55.914;37.554;2024-02-28T00:47:11;100092.75;;;-0.64;47.87
31088;BME280;17745;55.914;37.554;2024-02-28T00:53:54;100091.09;;;-0.65;48.05
31088;BME280;17745;55.914;37.554;2024-02-28T00:57:15;100103.47;;;-0.67;48.03
31088;BME280;17745;55.914;37.554;2024-02-28T00:59:55;100112.88;;;-0.66;48.07
31088;BME280;17745;55.914;37.554;2024-02-28T01:02:42;100104.94;;;-0.65;48.02
31088;BME280;17745;55.914;37.554;2024-02-28T01:05:24;100102.16;;;-0.63;47.94
31088;BME280;17745;55.914;37.554;2024-02-28T01:08:18;100089.34;;;-0.65;47.96
31088;BME280;17745;55.914;37.554;2024-02-28T01:11:20;100088.50;;;-0.65;48.05
31088;BME280;17745;55.914;37.554;2024-02-28T01:13:51;100086.09;;;-0.67;48.09
31088;BME280;17745;55.914;37.554;2024-02-28T01:16:25;100085.09;;;-0.66;48.05
31088;BME280;17745;55.914;37.554;2024-02-28T01:18:58;100087.72;;;-0.66;48.02
31088;BME280;17745;55.914;37.554;2024-02-28T01:21:28;100083.47;;;-0.67;48.07
31088;BME280;17745;55.914;37.554;2024-02-28T01:24:04;100075.03;;;-0.69;48.16
31088;BME280;17745;55.914;37.554;2024-02-28T01:26:34;100094.19;;;-0.70;48.20
31088;BME280;17745;55.914;37.554;2024-02-28T01:29:33;100080.50;;;-0.72;48.29
31088;BME280;17745;55.914;37.554;2024-02-28T01:32:36;100085.72;;;-0.72;48.29
31088;BME280;17745;55.914;37.554;2024-02-28T01:55:25;100080.19;;;-0.77;48.65
31088;BME280;17745;55.914;37.554;2024-02-28T01:57:56;100082.13;;;-0.79;48.70
31088;BME280;17745;55.914;37.554;2024-02-28T02:00:34;100081.00;;;-0.77;48.67
31088;BME280;17745;55.914;37.554;2024-02-28T02:03:27;100070.75;;;-0.78;48.75
31088;BME280;17745;55.914;37.554;2024-02-28T02:09:27;100077.56;;;-0.77;48.80
31088;BME280;17745;55.914;37.554;2024-02-28T02:15:23;100068.97;;;-0.78;48.83
31088;BME280;17745;55.914;37.554;2024-02-28T02:18:03;100078.41;;;-0.77;48.80
31088;BME280;17745;55.914;37.554;2024-02-28T02:20:38;100066.50;;;-0.79;48.98
31088;BME280;17745;55.914;37.554;2024-02-28T02:27:11;100065.41;;;-0.77;48.91
31088;BME280;17745;55.914;37.554;2024-02-28T02:29:51;100060.34;;;-0.78;49.11
31088;BME280;17745;55.914;37.554;2024-02-28T02:33:25;100063.78;;;-0.78;49.08
31088;BME280;17745;55.914;37.554;2024-02-28T02:36:01;100065.41;;;-0.77;49.19
31088;BME280;17745;55.914;37.554;2024-02-28T02:38:31;100058.41;;;-0.76;49.16
31088;BME280;17745;55.914;37.554;2024-02-28T02:41:06;100056.78;;;-0.77;49.28
31088;BME280;17745;55.914;37.554;2024-02-28T02:43:46;100061.97;;;-0.77;49.23
31088;BME280;17745;55.914;37.554;2024-02-28T02:47:32;100068.16;;;-0.78;49.28
31088;BME280;17745;55.914;37.554;2024-02-28T02:50:31;100058.72;;;-0.79;49.39
31088;BME280;17745;55.914;37.554;2024-02-28T02:53:07;100052.72;;;-0.80;49.55
31088;BME280;17745;55.914;37.554;2024-02-28T02:55:43;100047.00;;;-0.83;49.61
31088;BME280;17745;55.914;37.554;2024-02-28T02:58:24;100046.81;;;-0.82;49.62
31088;BME280;17745;55.914;37.554;2024-02-28T03:14:53;100034.00;;;-0.83;49.95
31088;BME280;17745;55.914;37.554;2024-02-28T03:18:05;100048.62;;;-0.82;50.10
31088;BME280;17745;55.914;37.554;2024-02-28T03:20:57;100040.97;;;-0.84;50.14
31088;BME280;17745;55.914;37.554;2024-02-28T03:23:26;100044.22;;;-0.82;50.17
31088;BME280;17745;55.914;37.554;2024-02-28T03:25:53;100034.66;;;-0.81;50.24
31088;BME280;17745;55.914;37.554;2024-02-28T03:28:21;100041.50;;;-0.80;50.18
31088;BME280;17745;55.914;37.554;2024-02-28T03:30:50;100033.53;;;-0.79;50.12
31088;BME280;17745;55.914;37.554;2024-02-28T03:33:17;100037.13;;;-0.80;50.29
31088;BME280;17745;55.914;37.554;2024-02-28T03:35:44;100030.44;;;-0.82;50.40
31088;BME280;17745;55.914;37.554;2024-02-28T03:38:15;100032.88;;;-0.81;50.54
31088;BME280;17745;55.914;37.554;2024-02-28T03:40:42;100038.09;;;-0.81;50.55
31088;BME280;17745;55.914;37.554;2024-02-28T03:43:11;100034.34;;;-0.78;50.46
31088;BME280;17745;55.914;37.554;2024-02-28T03:45:41;100019.72;;;-0.79;50.55
31088;BME280;17745;55.914;37.554;2024-02-28T03:48:10;100046.53;;;-0.79;50.53
31088;BME280;17745;55.914;37.554;2024-02-28T03:50:37;100042.31;;;-0.80;50.60
31088;BME280;17745;55.914;37.554;2024-02-28T03:53:08;100043.13;;;-0.79;50.57
31088;BME280;17745;55.914;37.554;2024-02-28T03:55:36;100043.94;;;-0.79;50.65
31088;BME280;17745;55.914;37.554;2024-02-28T03:58:03;100050.13;;;-0.80;50.65
31088;BME280;17745;55.914;37.554;2024-02-28T04:00:33;100048.50;;;-0.81;50.66
31088;BME280;17745;55.914;37.554;2024-02-28T04:03:00;100046.03;;;-0.82;50.76
31088;BME280;17745;55.914;37.554;2024-02-28T04:05:29;100047.50;;;-0.80;50.64
31088;BME280;17745;55.914;37.554;2024-02-28T04:07:57;100055.97;;;-0.78;50.68
31088;BME280;17745;55.914;37.554;2024-02-28T04:10:24;100044.09;;;-0.80;50.71
31088;BME280;17745;55.914;37.554;2024-02-28T04:12:52;100052.53;;;-0.78;50.60
31088;BME280;17745;55.914;37.554;2024-02-28T04:15:19;100044.22;;;-0.82;50.83
31088;BME280;17745;55.914;37.554;2024-02-28T04:17:48;100033.84;;;-0.82;50.88
31088;BME280;17745;55.914;37.554;2024-02-28T04:20:15;100046.69;;;-0.80;50.91
31088;BME280;17745;55.914;37.554;2024-02-28T04:22:47;100038.75;;;-0.79;50.89
31088;BME280;17745;55.914;37.554;2024-02-28T04:25:15;100042.12;;;-0.78;50.85
31088;BME280;17745;55.914;37.554;2024-02-28T04:27:43;100052.41;;;-0.77;50.82
31088;BME280;17745;55.914;37.554;2024-02-28T04:30:13;100049.94;;;-0.78;50.89
31088;BME280;17745;55.914;37.554;2024-02-28T04:32:41;100029.12;;;-0.78;50.98
31088;BME280;17745;55.914;37.554;2024-02-28T04:35:08;100034.53;;;-0.80;51.08
31088;BME280;17745;55.914;37.554;2024-02-28T04:37:37;100039.53;;;-0.78;51.03
31088;BME280;17745;55.914;37.554;2024-02-28T04:40:07;100038.44;;;-0.76;51.14
31088;BME280;17745;55.914;37.554;2024-02-28T04:42:36;100035.97;;;-0.77;51.21
31088;BME280;17745;55.914;37.554;2024-02-28T04:45:04;100033.87;;;-0.74;51.13
31088;BME280;17745;55.914;37.554;2024-02-28T04:47:33;100031.47;;;-0.67;51.01
31088;BME280;17745;55.914;37.554;2024-02-28T04:50:02;100032.78;;;-0.63;51.09
31088;BME280;17745;55.914;37.554;2024-02-28T04:52:30;100036.03;;;-0.61;51.17
31088;BME280;17745;55.914;37.554;2024-02-28T04:54:58;100028.38;;;-0.62;51.23
31088;BME280;17745;55.914;37.554;2024-02-28T04:57:28;100032.44;;;-0.60;51.28
31088;BME280;17745;55.914;37.554;2024-02-28T04:59:56;100037.34;;;-0.56;51.23
31088;BME280;17745;55.914;37.554;2024-02-28T05:02:24;100039.31;;;-0.50;51.20
31088;BME280;17745;55.914;37.554;2024-02-28T05:04:52;100039.12;;;-0.49;51.24
31088;BME280;17745;55.914;37.554;2024-02-28T05:07:20;100042.41;;;-0.47;51.31
31088;BME280;17745;55.914;37.554;2024-02-28T05:09:49;100051.69;;;-0.44;51.30
31088;BME280;17745;55.914;37.554;2024-02-28T05:12:17;100053.63;;;-0.38;51.22
31088;BME280;17745;55.914;37.554;2024-02-28T05:14:46;100048.13;;;-0.35;51.21
31088;BME280;17745;55.914;37.554;2024-02-28T05:17:14;100056.94;;;-0.27;51.19
31088;BME280;17745;55.914;37.554;2024-02-28T05:19:42;100052.84;;;-0.22;51.18
31088;BME280;17745;55.914;37.554;2024-02-28T05:22:10;100050.75;;;-0.18;51.17
31088;BME280;17745;55.914;37.554;2024-02-28T05:24:38;100058.88;;;-0.13;51.18
31088;BME280;17745;55.914;37.554;2024-02-28T05:27:05;100046.03;;;-0.06;51.06
31088;BME280;17745;55.914;37.554;2024-02-28T05:29:32;100042.62;;;0.02;51.02
31088;BME280;17745;55.914;37.554;2024-02-28T05:32:02;100044.56;;;0.08;50.95
31088;BME280;17745;55.914;37.554;2024-02-28T05:34:29;100050.13;;;0.13;50.95
31088;BME280;17745;55.914;37.554;2024-02-28T05:36:57;100045.25;;;0.18;50.90
31088;BME280;17745;55.914;37.554;2024-02-28T05:39:26;100055.00;;;0.24;50.88
31088;BME280;17745;55.914;37.554;2024-02-28T05:41:53;100048.47;;;0.28;50.84
31088;BME280;17745;55.914;37.554;2024-02-28T05:44:21;100056.78;;;0.32;50.85
31088;BME280;17745;55.914;37.554;2024-02-28T05:46:58;100049.94;;;0.39;50.79
31088;BME280;17745;55.914;37.554;2024-02-28T05:49:30;100050.75;;;0.48;50.78
31088;BME280;17745;55.914;37.554;2024-02-28T05:51:58;100055.31;;;0.54;50.77
31088;BME280;17745;55.914;37.554;2024-02-28T05:54:26;100045.00;;;0.61;50.71
31088;BME280;17745;55.914;37.554;2024-02-28T05:56:53;100058.69;;;0.71;50.64
31088;BME280;17745;55.914;37.554;2024-02-28T05:59:22;100056.88;;;0.80;50.53
31088;BME280;17745;55.914;37.554;2024-02-28T06:01:52;100060.78;;;0.84;50.43
31088;BME280;17745;55.914;37.554;2024-02-28T06:04:21;100064.50;;;0.90;50.46
31088;BME280;17745;55.914;37.554;2024-02-28T06:07:06;100050.63;;;0.98;50.42
31088;BME280;17745;55.914;37.554;2024-02-28T06:09:34;100058.25;;;1.08;50.31
31088;BME280;17745;55.914;37.554;2024-02-28T06:12:01;100057.28;;;1.09;50.24
31088;BME280;17745;55.914;37.554;2024-02-28T06:14:29;100060.03;;;1.16;50.37
31088;BME280;17745;55.914;37.554;2024-02-28T06:16:57;100068.47;;;1.26;50.23
31088;BME280;17745;55.914;37.554;2024-02-28T06:19:33;100063.03;;;1.36;50.03
31088;BME280;17745;55.914;37.554;2024-02-28T06:22:07;100061.25;;;1.36;49.99
31088;BME280;17745;55.914;37.554;2024-02-28T06:24:44;100065.47;;;1.37;49.99
31088;BME280;17745;55.914;37.554;2024-02-28T06:27:18;100060.25;;;1.37;50.06
31088;BME280;17745;55.914;37.554;2024-02-28T06:29:48;100062.19;;;1.43;50.00
31088;BME280;17745;55.914;37.554;2024-02-28T06:32:23;100057.25;;;1.49;49.91
31088;BME280;17745;55.914;37.554;2024-02-28T06:34:54;100051.06;;;1.50;49.89
31088;BME280;17745;55.914;37.554;2024-02-28T06:37:28;100057.56;;;1.54;49.95
31088;BME280;17745;55.914;37.554;2024-02-28T06:39:59;100054.78;;;1.55;49.67
31088;BME280;17745;55.914;37.554;2024-02-28T06:42:29;100053.00;;;1.56;49.66
31088;BME280;17745;55.914;37.554;2024-02-28T06:44:58;100053.09;;;1.63;49.87
31088;BME280;17745;55.914;37.554;2024-02-28T06:47:37;100028.75;;;1.70;49.71
31088;BME280;17745;55.914;37.554;2024-02-28T06:50:07;100050.75;;;1.76;49.75
31088;BME280;17745;55.914;37.554;2024-02-28T06:55:49;100042.62;;;1.94;49.53
31088;BME280;17745;55.914;37.554;2024-02-28T06:58:21;100057.59;;;2.00;49.47
31088;BME280;17745;55.914;37.554;2024-02-28T07:00:51;100050.87;;;2.06;49.27
31088;BME280;17745;55.914;37.554;2024-02-28T07:03:20;100060.13;;;2.09;49.49
31088;BME280;17745;55.914;37.554;2024-02-28T07:05:52;100061.34;;;2.21;49.36
31088;BME280;17745;55.914;37.554;2024-02-28T07:08:21;100052.16;;;2.25;49.17
31088;BME280;17745;55.914;37.554;2024-02-28T07:10:51;100052.44;;;2.31;49.16
31088;BME280;17745;55.914;37.554;2024-02-28T07:13:21;100058.97;;;2.35;49.10
31088;BME280;17745;55.914;37.554;2024-02-28T07:15:49;100054.91;;;2.47;49.11
31088;BME280;17745;55.914;37.554;2024-02-28T07:18:16;100059.16;;;2.63;49.17
31088;BME280;17745;55.914;37.554;2024-02-28T07:20:51;100057.28;;;2.72;48.72
31088;BME280;17745;55.914;37.554;2024-02-28T07:23:22;100064.25;;;2.80;48.76
31088;BME280;17745;55.914;37.554;2024-02-28T07:25:52;100064.16;;;2.88;48.53
31088;BME280;17745;55.914;37.554;2024-02-28T07:28:19;100075.69;;;2.94;48.85
31088;BME280;17745;55.914;37.554;2024-02-28T07:30:47;100078.50;;;3.07;48.75
31088;BME280;17745;55.914;37.554;2024-02-28T07:33:15;100075.97;;;3.14;48.65
31088;BME280;17745;55.914;37.554;2024-02-28T07:35:44;100075.69;;;3.24;48.63
31088;BME280;17745;55.914;37.554;2024-02-28T07:38:13;100074.87;;;3.38;48.44
31088;BME280;17745;55.914;37.554;2024-02-28T07:40:46;100068.53;;;3.48;47.88
31088;BME280;17745;55.914;37.554;2024-02-28T07:43:16;100061.13;;;3.51;47.82
31088;BME280;17745;55.914;37.554;2024-02-28T07:45:45;100055.97;;;3.58;47.92
31088;BME280;17745;55.914;37.554;2024-02-28T07:48:16;100066.47;;;3.65;47.96
31088;BME280;17745;55.914;37.554;2024-02-28T07:50:45;100065.84;;;3.78;47.98
31088;BME280;17745;55.914;37.554;2024-02-28T07:53:13;100066.94;;;3.90;47.91
31088;BME280;17745;55.914;37.554;2024-02-28T07:55:41;100059.62;;;4.07;47.74
31088;BME280;17745;55.914;37.554;2024-02-28T07:58:11;100046.84;;;4.19;47.60
31088;BME280;17745;55.914;37.554;2024-02-28T08:00:41;100057.53;;;4.18;47.35
31088;BME280;17745;55.914;37.554;2024-02-28T08:03:11;100047.03;;;4.18;47.04
31088;BME280;17745;55.914;37.554;2024-02-28T08:37:10;100024.91;;;4.91;46.03
31088;BME280;17745;55.914;37.554;2024-02-28T08:40:11;100020.72;;;4.96;45.85
31088;BME280;17745;55.914;37.554;2024-02-28T08:43:38;100032.41;;;4.94;45.88
31088;BME280;17745;55.914;37.554;2024-02-28T08:46:48;100009.41;;;5.03;46.05
31088;BME280;17745;55.914;37.554;2024-02-28T08:49:20;100009.09;;;5.19;45.70
31088;BME280;17745;55.914;37.554;2024-02-28T08:51:54;100013.34;;;5.27;45.62
31088;BME280;17745;55.914;37.554;2024-02-28T08:54:28;100015.78;;;5.35;45.82
31088;BME280;17745;55.914;37.554;2024-02-28T08:56:58;100023.13;;;5.47;45.69
31088;BME280;17745;55.914;37.554;2024-02-28T08:59:45;100011.19;;;5.51;45.30
31088;BME280;17745;55.914;37.554;2024-02-28T09:02:31;100014.63;;;5.58;45.31
31088;BME280;17745;55.914;37.554;2024-02-28T09:05:06;100014.47;;;5.73;44.76
31088;BME280;17745;55.914;37.554;2024-02-28T09:07:37;100016.09;;;5.74;44.90
31088;BME280;17745;55.914;37.554;2024-02-28T09:10:18;100014.47;;;5.80;44.96
31088;BME280;17745;55.914;37.554;2024-02-28T09:12:53;100019.53;;;5.88;44.81
31088;BME280;17745;55.914;37.554;2024-02-28T09:15:24;100014.50;;;6.00;44.70
31088;BME280;17745;55.914;37.554;2024-02-28T09:17:56;100011.31;;;6.05;44.50
31088;BME280;17745;55.914;37.554;2024-02-28T09:20:44;100010.66;;;6.09;44.31
31088;BME280;17745;55.914;37.554;2024-02-28T09:23:14;100017.75;;;6.09;44.30
31088;BME280;17745;55.914;37.554;2024-02-28T09:25:51;100016.94;;;6.15;44.27
31088;BME280;17745;55.914;37.554;2024-02-28T09:28:28;100006.84;;;6.12;43.90
31088;BME280;17745;55.914;37.554;2024-02-28T09:31:04;100014.72;;;6.05;44.16
31088;BME280;17745;55.914;37.554;2024-02-28T09:33:37;100008.44;;;6.13;44.35
31088;BME280;17745;55.914;37.554;2024-02-28T09:36:10;100008.03;;;6.29;44.26
31088;BME280;17745;55.914;37.554;2024-02-28T09:38:42;100014.69;;;6.39;44.24
31088;BME280;17745;55.914;37.554;2024-02-28T09:41:17;100017.50;;;6.57;44.10
31088;BME280;17745;55.914;37.554;2024-02-28T09:43:49;100006.97;;;6.71;43.84
31088;BME280;17745;55.914;37.554;2024-02-28T09:46:19;100017.84;;;6.81;43.73
31088;BME280;17745;55.914;37.554;2024-02-28T09:48:47;100008.72;;;6.91;43.88
31088;BME280;17745;55.914;37.554;2024-02-28T09:51:16;100011.09;;;7.06;43.86
31088;BME280;17745;55.914;37.554;2024-02-28T09:53:46;100014.47;;;7.20;43.77
31088;BME280;17745;55.914;37.554;2024-02-28T09:56:13;100011.78;;;7.33;43.54
31088;BME280;17745;55.914;37.554;2024-02-28T09:58:44;100016.63;;;7.36;42.98
31088;BME280;17745;55.914;37.554;2024-02-28T10:01:13;100018.62;;;7.41;43.07
31088;BME280;17745;55.914;37.554;2024-02-28T10:03:44;100023.28;;;7.46;43.03
31088;BME280;17745;55.914;37.554;2024-02-28T10:06:14;100027.09;;;7.50;43.22
31088;BME280;17745;55.914;37.554;2024-02-28T10:08:57;100021.41;;;7.53;43.01
31088;BME280;17745;55.914;37.554;2024-02-28T10:11:28;100021.16;;;7.54;42.80
31088;BME280;17745;55.914;37.554;2024-02-28T10:14:06;100028.28;;;7.54;42.53
31088;BME280;17745;55.914;37.554;2024-02-28T10:16:46;100016.53;;;7.56;42.54
31088;BME280;17745;55.914;37.554;2024-02-28T10:19:19;100018.75;;;7.53;42.28
31088;BME280;17745;55.914;37.554;2024-02-28T10:21:47;100020.22;;;7.49;42.14
31088;BME280;17745;55.914;37.554;2024-02-28T10:24:15;100019.66;;;7.40;41.89
31088;BME280;17745;55.914;37.554;2024-02-28T10:26:44;100014.38;;;7.40;41.82
31088;BME280;17745;55.914;37.554;2024-02-28T10:29:16;100019.06;;;7.38;41.64
31088;BME280;17745;55.914;37.554;2024-02-28T10:31:55;100001.41;;;7.38;41.60
31088;BME280;17745;55.914;37.554;2024-02-28T10:34:23;100011.91;;;7.45;41.35
31088;BME280;17745;55.914;37.554;2024-02-28T11:40:07;99976.78;;;8.09;39.52
31088;BME280;17745;55.914;37.554;2024-02-28T11:49:34;99953.25;;;8.07;38.91
31088;BME280;17745;55.914;37.554;2024-02-28T12:53:01;99925.19;;;13.66;31.70
31088;BME280;17745;55.914;37.554;2024-02-28T12:56:00;99927.97;;;13.86;31.61
31088;BME280;17745;55.914;37.554;2024-02-28T12:58:44;99927.84;;;14.09;31.24
31088;BME280;17745;55.914;37.554;2024-02-28T13:01:33;99933.19;;;14.09;31.41
31088;BME280;17745;55.914;37.554;2024-02-28T13:04:43;99928.19;;;14.23;31.45
31088;BME280;17745;55.914;37.554;2024-02-28T13:10:57;99924.00;;;13.89;31.65
31088;BME280;17745;55.914;37.554;2024-02-28T13:13:49;99915.09;;;14.11;31.47
31088;BME280;17745;55.914;37.554;2024-02-28T13:19:14;99917.91;;;14.42;31.18
31088;BME280;17745;55.914;37.554;2024-02-28T14:16:43;99922.34;;;12.01;33.73
31088;BME280;17745;55.914;37.554;2024-02-28T14:19:31;99921.38;;;11.22;34.63
31088;BME280;17745;55.914;37.554;2024-02-28T14:28:39;99922.09;;;9.52;36.53
31088;BME280;17745;55.914;37.554;2024-02-28T17:06:41;99903.91;;;5.68;44.06
31088;BME280;17745;55.914;37.554;2024-02-28T17:09:21;99910.16;;;5.67;44.11
31088;BME280;17745;55.914;37.554;2024-02-28T17:11:50;99899.88;;;5.65;44.20
31088;BME280;17745;55.914;37.554;2024-02-28T17:14:19;99903.72;;;5.63;44.38
31088;BME280;17745;55.914;37.554;2024-02-28T17:16:49;99905.31;;;5.64;44.34
31088;BME280;17745;55.914;37.554;2024-02-28T17:19:17;99906.53;;;5.61;44.32
31088;BME280;17745;55.914;37.554;2024-02-28T17:21:57;99910.16;;;5.60;44.32
31088;BME280;17745;55.914;37.554;2024-02-28T17:24:25;99902.69;;;5.57;44.26
31088;BME280;17745;55.914;37.554;2024-02-28T17:26:54;99906.56;;;5.54;44.28
31088;BME280;17745;55.914;37.554;2024-02-28T17:29:25;99903.50;;;5.51;44.34
31088;BME280;17745;55.914;37.554;2024-02-28T17:32:00;99904.09;;;5.46;44.47
31088;BME280;17745;55.914;37.554;2024-02-28T17:34:34;99901.09;;;5.42;44.57
31088;BME280;17745;55.914;37.554;2024-02-28T17:37:06;99898.84;;;5.39;44.51
31088;BME280;17745;55.914;37.554;2024-02-28T17:39:36;99893.81;;;5.38;44.61
31088;BME280;17745;55.914;37.554;2024-02-28T17:42:06;99899.25;;;5.36;44.62
31088;BME280;17745;55.914;37.554;2024-02-28T17:44:36;99892.38;;;5.35;44.60
31088;BME280;17745;55.914;37.554;2024-02-28T17:47:06;99887.34;;;5.34;44.62
31088;BME280;17745;55.914;37.554;2024-02-28T17:49:36;99890.38;;;5.31;44.64
31088;BME280;17745;55.914;37.554;2024-02-28T17:52:06;99895.81;;;5.29;44.69
31088;BME280;17745;55.914;37.554;2024-02-28T17:54:33;99896.22;;;5.26;44.66
31088;BME280;17745;55.914;37.554;2024-02-28T17:57:04;99895.63;;;5.24;44.61
31088;BME280;17745;55.914;37.554;2024-02-28T17:59:35;99890.94;;;5.19;44.66
31088;BME280;17745;55.914;37.554;2024-02-28T18:02:03;99901.03;;;5.15;44.68
31088;BME280;17745;55.914;37.554;2024-02-28T18:04:48;99899.41;;;5.14;44.67
31088;BME280;17745;55.914;37.554;2024-02-28T18:10:08;99897.59;;;5.08;44.79
31088;BME280;17745;55.914;37.554;2024-02-28T18:12:38;99895.97;;;5.07;44.76
31088;BME280;17745;55.914;37.554;2024-02-28T18:15:09;99898.00;;;5.05;44.77
31088;BME280;17745;55.914;37.554;2024-02-28T18:17:39;99902.03;;;5.01;44.89
31088;BME280;17745;55.914;37.554;2024-02-28T18:23:31;99905.66;;;4.93;44.97
31088;BME280;17745;55.914;37.554;2024-02-28T18:44:43;99895.25;;;4.65;45.37
31088;BME280;17745;55.914;37.554;2024-02-28T18:47:42;99883.53;;;4.61;45.35
31088;BME280;17745;55.914;37.554;2024-02-28T18:50:17;99882.28;;;4.56;45.40
31088;BME280;17745;55.914;37.554;2024-02-28T19:18:58;99877.06;;;4.14;45.92
31088;BME280;17745;55.914;37.554;2024-02-28T19:21:34;99865.72;;;4.07;46.08
31088;BME280;17745;55.914;37.554;2024-02-28T19:24:14;99862.91;;;4.09;46.06
31088;BME280;17745;55.914;37.554;2024-02-28T19:27:01;99862.69;;;4.04;46.15
31088;BME280;17745;55.914;37.554;2024-02-28T19:29:46;99864.50;;;4.03;46.13
31088;BME280;17745;55.914;37.554;2024-02-28T19:32:29;99866.72;;;3.99;46.18
31088;BME280;17745;55.914;37.554;2024-02-28T19:41:57;99862.16;;;3.80;46.43
31088;BME280;17745;55.914;37.554;2024-02-28T19:44:29;99862.72;;;3.75;46.39
31088;BME280;17745;55.914;37.554;2024-02-28T19:47:04;99860.47;;;3.72;46.47
31088;BME280;17745;55.914;37.554;2024-02-28T19:49:35;99860.88;;;3.69;46.60
31088;BME280;17745;55.914;37.554;2024-02-28T19:55:10;99873.09;;;3.62;46.79
31088;BME280;17745;55.914;37.554;2024-02-28T19:57:44;99863.44;;;3.62;46.71
31088;BME280;17745;55.914;37.554;2024-02-28T20:00:21;99867.22;;;3.60;46.78
31088;BME280;17745;55.914;37.554;2024-02-28T20:02:51;99866.44;;;3.59;46.83
31088;BME280;17745;55.914;37.554;2024-02-28T20:05:20;99865.59;;;3.58;46.83
31088;BME280;17745;55.914;37.554;2024-02-28T20:07:48;99859.59;;;3.58;46.86
31088;BME280;17745;55.914;37.554;2024-02-28T20:10:21;99866.00;;;3.55;46.95
31088;BME280;17745;55.914;37.554;2024-02-28T20:12:56;99867.00;;;3.54;47.05
31088;BME280;17745;55.914;37.554;2024-02-28T20:15:33;99855.69;;;3.54;47.05
31088;BME280;17745;55.914;37.554;2024-02-28T20:18:04;99868.16;;;3.52;47.16
31088;BME280;17745;55.914;37.554;2024-02-28T20:20:41;99856.09;;;3.51;47.21
31088;BME280;17745;55.914;37.554;2024-02-28T20:23:10;99856.91;;;3.51;47.25
31088;BME280;17745;55.914;37.554;2024-02-28T20:25:44;99854.28;;;3.51;47.24
31088;BME280;17745;55.914;37.554;2024-02-28T20:28:18;99863.56;;;3.54;47.19
31088;BME280;17745;55.914;37.554;2024-02-28T20:30:51;99852.47;;;3.52;47.21
31088;BME280;17745;55.914;37.554;2024-02-28T20:33:19;99867.75;;;3.48;47.35
31088;BME280;17745;55.914;37.554;2024-02-28T20:35:49;99864.31;;;3.48;47.36
31088;BME280;17745;55.914;37.554;2024-02-28T20:38:19;99866.13;;;3.47;47.40
31088;BME280;17745;55.914;37.554;2024-02-28T20:40:50;99861.25;;;3.44;47.45
31088;BME280;17745;55.914;37.554;2024-02-28T20:43:28;99852.78;;;3.42;47.54
31088;BME280;17745;55.914;37.554;2024-02-28T20:45:59;99866.63;;;3.36;47.66
31088;BME280;17745;55.914;37.554;2024-02-28T20:48:29;99867.06;;;3.39;47.69
31088;BME280;17745;55.914;37.554;2024-02-28T20:51:19;99872.50;;;3.38;47.80
31088;BME280;17745;55.914;37.554;2024-02-28T20:54:20;99878.56;;;3.38;47.78
31088;BME280;17745;55.914;37.554;2024-02-28T20:56:57;99843.69;;;3.38;47.82
31088;BME280;17745;55.914;37.554;2024-02-28T20:59:42;99867.88;;;3.40;47.90
31088;BME280;17745;55.914;37.554;2024-02-28T21:05:04;99870.87;;;3.37;48.07
31088;BME280;17745;55.914;37.554;2024-02-28T21:08:08;99858.78;;;3.36;48.06
31088;BME280;17745;55.914;37.554;2024-02-28T21:10:47;99865.81;;;3.35;47.97
31088;BME280;17745;55.914;37.554;2024-02-28T21:13:29;99864.56;;;3.31;48.11
31088;BME280;17745;55.914;37.554;2024-02-28T21:16:04;99865.56;;;3.30;48.26
31088;BME280;17745;55.914;37.554;2024-02-28T21:18:55;99871.37;;;3.25;48.32
31088;BME280;17745;55.914;37.554;2024-02-28T21:25:40;99885.19;;;3.19;48.50
31088;BME280;17745;55.914;37.554;2024-02-28T22:16:12;99891.41;;;2.96;49.50
31088;BME280;17745;55.914;37.554;2024-02-28T22:18:42;99890.06;;;3.00;49.30
31088;BME280;17745;55.914;37.554;2024-02-28T22:21:28;99880.03;;;3.04;49.35
31088;BME280;17745;55.914;37.554;2024-02-28T22:24:03;99881.47;;;3.07;49.26
31088;BME280;17745;55.914;37.554;2024-02-28T22:26:39;99889.13;;;3.08;49.22
31088;BME280;17745;55.914;37.554;2024-02-28T22:29:12;99883.44;;;3.05;49.45
31088;BME280;17745;55.914;37.554;2024-02-28T22:31:55;99895.09;;;3.02;49.53
31088;BME280;17745;55.914;37.554;2024-02-28T22:34:26;99888.25;;;3.01;49.59
31088;BME280;17745;55.914;37.554;2024-02-28T22:37:10;99887.06;;;3.04;49.51
31088;BME280;17745;55.914;37.554;2024-02-28T22:39:42;99887.88;;;3.04;49.54
31088;BME280;17745;55.914;37.554;2024-02-28T22:42:14;99888.88;;;3.03;49.58
31088;BME280;17745;55.914;37.554;2024-02-28T22:44:45;99879.22;;;3.04;49.53
31088;BME280;17745;55.914;37.554;2024-02-28T22:47:15;99885.44;;;3.03;49.54
31088;BME280;17745;55.914;37.554;2024-02-28T22:49:44;99891.50;;;3.03;49.59
31088;BME280;17745;55.914;37.554;2024-02-28T22:52:11;99880.59;;;2.99;49.69
31088;BME280;17745;55.914;37.554;2024-02-28T22:54:41;99872.94;;;2.98;49.72
31088;BME280;17745;55.914;37.554;2024-02-28T22:57:09;99880.78;;;2.98;49.79
31088;BME280;17745;55.914;37.554;2024-02-28T22:59:37;99888.63;;;2.98;49.78